createdAt,value
2023-04-09T00:02:48.441Z,5.55
2023-04-09T00:05:56.370Z,5.60
2023-04-09T00:09:02.766Z,5.49
2023-04-09T00:12:08.981Z,5.55
2023-04-09T00:15:24.357Z,5.62
2023-04-09T00:18:36.835Z,5.63
2023-04-09T00:21:44.652Z,5.74
2023-04-09T00:24:51.321Z,5.80
2023-04-09T00:27:58.309Z,5.74
2023-04-09T00:31:04.668Z,5.58
2023-04-09T00:34:11.082Z,5.49
2023-04-09T00:37:18.952Z,5.38
2023-04-09T00:40:25.543Z,5.61
2023-04-09T00:43:32.157Z,5.73
2023-04-09T00:46:38.294Z,5.59
2023-04-09T00:49:44.682Z,5.80
2023-04-09T00:52:52.712Z,5.87
2023-04-09T00:55:59.882Z,5.68
2023-04-09T00:59:06.410Z,5.43
2023-04-09T01:02:12.858Z,5.44
2023-04-09T01:05:19.071Z,5.42
2023-04-09T01:08:35.221Z,5.34
2023-04-09T01:11:47.905Z,5.40
2023-04-09T01:15:01.614Z,5.19
2023-04-09T01:18:11.552Z,5.39
2023-04-09T01:21:21.645Z,5.48
2023-04-09T01:24:42.856Z,5.62
2023-04-09T01:28:09.514Z,5.60
2023-04-09T01:31:19.737Z,5.38
2023-04-09T01:34:27.650Z,5.51
2023-04-09T01:37:34.426Z,5.49
2023-04-09T01:40:41.042Z,5.75
2023-04-09T01:43:50.763Z,5.66
2023-04-09T01:46:59.477Z,5.60
2023-04-09T01:50:06.171Z,5.64
2023-04-09T01:53:12.703Z,5.82
2023-04-09T01:56:18.972Z,5.89
2023-04-09T01:59:26.729Z,5.99
2023-04-09T02:02:40.679Z,5.93
2023-04-09T02:05:58.709Z,5.89
2023-04-09T02:09:07.820Z,6.09
2023-04-09T02:12:17.888Z,5.85
2023-04-09T02:15:26.245Z,5.75
2023-04-09T02:18:32.903Z,5.78
2023-04-09T02:21:39.155Z,5.54
2023-04-09T02:24:45.462Z,5.66
2023-04-09T02:27:51.942Z,5.50
2023-04-09T02:30:59.711Z,5.57
2023-04-09T02:34:06.013Z,5.43
2023-04-09T02:37:12.116Z,5.37
2023-04-09T02:40:18.475Z,5.42
2023-04-09T02:43:25.249Z,5.55
2023-04-09T02:46:32.776Z,5.37
2023-04-09T02:49:39.138Z,5.33
2023-04-09T02:52:47.974Z,5.27
2023-04-09T02:55:53.946Z,5.37
2023-04-09T02:59:00.370Z,5.50
2023-04-09T03:02:08.094Z,5.43
2023-04-09T03:05:14.531Z,5.43
2023-04-09T03:08:21.114Z,5.39
2023-04-09T03:11:27.315Z,5.30
2023-04-09T03:14:34.806Z,4.72
2023-04-09T03:17:42.850Z,4.78
2023-04-09T03:20:49.283Z,5.19
2023-04-09T03:23:55.110Z,5.25
2023-04-09T03:27:00.920Z,5.26
2023-04-09T03:30:07.771Z,5.04
2023-04-09T03:33:15.447Z,5.27
2023-04-09T03:36:21.706Z,5.09
2023-04-09T03:39:30.956Z,4.44
2023-04-09T03:42:37.583Z,4.38
2023-04-09T03:45:43.871Z,4.18
2023-04-09T03:48:51.930Z,4.22
2023-04-09T03:51:58.088Z,4.67
2023-04-09T03:55:05.342Z,4.83
2023-04-09T03:58:11.715Z,4.75
2023-04-09T04:01:18.100Z,4.36
2023-04-09T04:04:25.772Z,4.46
2023-04-09T04:07:33.816Z,4.84
2023-04-09T04:10:40.339Z,4.61
2023-04-09T04:13:46.570Z,4.84
2023-04-09T04:16:53.035Z,4.83
2023-04-09T04:20:00.827Z,4.86
2023-04-09T04:23:07.321Z,5.05
2023-04-09T04:26:13.705Z,4.78
2023-04-09T04:29:20.263Z,4.78
2023-04-09T04:32:26.715Z,4.91
2023-04-09T04:35:34.597Z,4.77
2023-04-09T04:38:42.717Z,4.73
2023-04-09T04:41:48.874Z,4.89
2023-04-09T04:44:55.107Z,5.13
2023-04-09T04:48:01.206Z,5.12
2023-04-09T04:51:08.676Z,5.27
2023-04-09T04:54:14.775Z,5.43
2023-04-09T04:57:20.777Z,5.69
2023-04-09T05:00:26.991Z,5.77
2023-04-09T05:03:33.258Z,5.66
2023-04-09T05:06:40.916Z,6.29
2023-04-09T05:09:47.315Z,6.73
2023-04-09T05:12:54.026Z,6.63
2023-04-09T05:16:00.234Z,5.95
2023-04-09T05:19:06.705Z,5.18
2023-04-09T05:22:14.492Z,5.78
2023-04-09T05:25:20.944Z,5.97
2023-04-09T05:28:28.077Z,6.13
2023-04-09T05:31:34.452Z,6.05
2023-04-09T05:34:41.151Z,5.85
2023-04-09T05:37:49.275Z,6.69
2023-04-09T05:40:55.761Z,7.23
2023-04-09T05:44:01.973Z,7.13
2023-04-09T05:47:08.340Z,7.15
2023-04-09T05:50:14.606Z,7.86
2023-04-09T05:53:23.053Z,8.05
2023-04-09T05:56:29.318Z,7.77
2023-04-09T05:59:35.630Z,7.53
2023-04-09T06:02:42.671Z,8.08
2023-04-09T06:05:49.542Z,7.81
2023-04-09T06:08:57.071Z,7.74
2023-04-09T06:12:04.188Z,8.56
2023-04-09T06:15:11.365Z,8.50
2023-04-09T06:18:18.523Z,8.52
2023-04-09T06:21:24.797Z,8.72
2023-04-09T06:24:34.358Z,8.21
2023-04-09T06:27:41.349Z,7.95
2023-04-09T06:30:49.313Z,7.70
2023-04-09T06:33:55.910Z,8.48
2023-04-09T06:37:02.696Z,8.45
2023-04-09T06:40:11.359Z,8.37
2023-04-09T06:43:17.900Z,8.62
2023-04-09T06:46:24.553Z,8.52
2023-04-09T06:49:31.030Z,8.88
2023-04-09T06:52:37.353Z,9.03
2023-04-09T06:55:45.085Z,8.85
2023-04-09T06:58:51.715Z,9.59
2023-04-09T07:01:58.189Z,9.40
2023-04-09T07:05:04.587Z,9.14
2023-04-09T07:08:11.861Z,9.77
2023-04-09T07:11:19.871Z,10.14
2023-04-09T07:14:26.278Z,10.31
2023-04-09T07:17:33.489Z,10.57
2023-04-09T07:20:39.732Z,10.55
2023-04-09T07:23:46.024Z,10.29
2023-04-09T07:26:54.011Z,10.22
2023-04-09T07:30:01.117Z,10.76
2023-04-09T07:33:07.707Z,10.98
2023-04-09T07:36:14.214Z,11.57
2023-04-09T07:39:21.201Z,10.96
2023-04-09T07:42:28.848Z,11.88
2023-04-09T07:45:35.416Z,11.81
2023-04-09T07:48:41.843Z,12.64
2023-04-09T07:51:48.062Z,12.17
2023-04-09T07:54:54.543Z,12.07
2023-04-09T07:58:02.297Z,11.10
2023-04-09T08:01:08.545Z,11.46
2023-04-09T08:04:15.392Z,11.54
2023-04-09T08:07:22.147Z,11.53
2023-04-09T08:10:28.595Z,12.25
2023-04-09T08:13:36.563Z,12.14
2023-04-09T08:16:47.398Z,11.45
2023-04-09T08:19:53.914Z,11.69
2023-04-09T08:23:00.500Z,12.68
2023-04-09T08:26:07.098Z,12.42
2023-04-09T08:29:15.878Z,12.35
2023-04-09T08:32:22.180Z,12.52
2023-04-09T08:35:29.435Z,12.21
2023-04-09T08:38:35.736Z,12.39
2023-04-09T08:41:44.942Z,11.93
2023-04-09T08:44:52.828Z,11.87
2023-04-09T08:48:00.201Z,12.09
2023-04-09T08:51:06.988Z,11.83
2023-04-09T08:54:17.254Z,11.89
2023-04-09T08:57:23.535Z,11.83
2023-04-09T09:00:31.569Z,11.23
2023-04-09T09:03:55.599Z,12.42
2023-04-09T09:07:08.128Z,12.39
2023-04-09T09:10:14.278Z,12.89
2023-04-09T09:13:23.745Z,11.90
2023-04-09T09:16:31.516Z,12.36
2023-04-09T09:19:38.003Z,13.12
2023-04-09T09:22:54.936Z,13.33
2023-04-09T09:26:01.729Z,13.51
2023-04-09T09:29:08.147Z,14.21
2023-04-09T09:32:16.214Z,12.93
2023-04-09T09:35:23.568Z,13.51
2023-04-09T09:38:30.745Z,13.17
2023-04-09T09:41:37.626Z,13.57
2023-04-09T09:44:44.380Z,13.18
2023-04-09T09:47:53.399Z,13.39
2023-04-09T09:51:00.694Z,13.01
2023-04-09T09:54:09.847Z,13.71
2023-04-09T09:57:19.976Z,13.23
2023-04-09T10:00:28.519Z,13.46
2023-04-09T10:03:38.547Z,13.74
2023-04-09T10:06:46.143Z,14.24
2023-04-09T10:09:55.910Z,14.39
2023-04-09T10:13:02.569Z,14.38
2023-04-09T10:16:08.948Z,13.80
2023-04-09T10:19:17.220Z,14.24
2023-04-09T10:22:28.545Z,14.06
2023-04-09T10:25:35.125Z,13.81
2023-04-09T10:28:41.801Z,13.17
2023-04-09T10:31:50.165Z,12.67
2023-04-09T10:35:01.178Z,13.13
2023-04-09T10:38:11.430Z,12.61
2023-04-09T10:41:23.897Z,12.57
2023-04-09T10:44:31.934Z,12.30
2023-04-09T10:47:39.763Z,13.16
2023-04-09T10:50:47.428Z,12.97
2023-04-09T10:53:54.446Z,13.23
2023-04-09T10:57:20.888Z,12.87
2023-04-09T11:00:27.356Z,14.42
2023-04-09T11:03:39.640Z,13.48
2023-04-09T11:06:49.475Z,12.89
2023-04-09T11:09:56.024Z,12.96
2023-04-09T11:13:03.174Z,13.11
2023-04-09T11:16:09.370Z,12.98
2023-04-09T11:19:16.296Z,12.56
2023-04-09T11:22:23.914Z,13.26
2023-04-09T11:25:32.525Z,12.86
2023-04-09T11:28:42.567Z,12.97
2023-04-09T11:31:48.942Z,12.27
2023-04-09T11:34:55.185Z,12.37
2023-04-09T11:38:02.967Z,12.78
2023-04-09T11:41:13.056Z,13.04
2023-04-09T11:44:19.403Z,12.82
2023-04-09T11:47:26.378Z,13.36
2023-04-09T11:50:33.598Z,12.73
2023-04-09T11:53:41.278Z,13.06
2023-04-09T11:56:55.874Z,12.77
2023-04-09T12:00:07.856Z,12.19
2023-04-09T12:03:16.761Z,12.64
2023-04-09T12:06:24.869Z,12.46
2023-04-09T12:09:33.083Z,12.27
2023-04-09T12:12:44.362Z,13.00
2023-04-09T12:15:51.633Z,12.75
2023-04-09T12:18:57.793Z,12.55
2023-04-09T12:22:03.878Z,12.46
2023-04-09T12:25:12.038Z,12.33
2023-04-09T12:28:18.871Z,12.45
2023-04-09T12:31:25.764Z,12.04
2023-04-09T12:34:32.411Z,12.06
2023-04-09T12:37:39.050Z,12.29
2023-04-09T12:40:46.893Z,12.44
2023-04-09T12:43:53.311Z,12.58
2023-04-09T12:46:59.866Z,12.68
2023-04-09T12:50:07.358Z,12.86
2023-04-09T12:53:13.989Z,12.49
2023-04-09T12:56:21.572Z,12.77
2023-04-09T12:59:27.778Z,12.87
2023-04-09T13:02:34.570Z,12.68
2023-04-09T13:05:41.022Z,12.41
2023-04-09T13:08:47.436Z,12.24
2023-04-09T13:11:55.237Z,11.88
2023-04-09T13:15:01.668Z,11.85
2023-04-09T13:18:08.312Z,11.71
2023-04-09T13:21:18.852Z,11.57
2023-04-09T13:24:26.092Z,11.21
2023-04-09T13:27:33.740Z,11.38
2023-04-09T13:30:40.640Z,11.23
2023-04-09T13:33:47.092Z,10.86
2023-04-09T13:36:53.380Z,11.18
2023-04-09T13:39:59.810Z,11.11
2023-04-09T13:43:07.400Z,11.07
2023-04-09T13:46:13.552Z,11.04
2023-04-09T13:49:32.989Z,10.39
2023-04-09T13:52:39.457Z,10.45
2023-04-09T13:55:45.892Z,10.26
2023-04-09T13:58:53.745Z,10.45
2023-04-09T14:02:00.510Z,10.47
2023-04-09T14:05:07.574Z,10.35
2023-04-09T14:08:13.991Z,10.44
2023-04-09T14:11:20.750Z,10.54
2023-04-09T14:14:28.412Z,9.82
2023-04-09T14:17:35.030Z,10.46
2023-04-09T14:20:41.325Z,9.89
2023-04-09T14:23:47.526Z,9.97
2023-04-09T14:26:54.017Z,9.53
2023-04-09T14:30:01.634Z,10.09
2023-04-09T14:33:08.000Z,9.67
2023-04-09T14:36:14.024Z,9.95
2023-04-09T14:39:20.271Z,9.91
2023-04-09T14:42:26.493Z,9.53
2023-04-09T14:45:34.265Z,9.90
2023-04-09T14:48:40.938Z,9.45
2023-04-09T14:51:47.554Z,10.04
2023-04-09T14:54:54.150Z,9.53
2023-04-09T14:58:01.766Z,9.78
2023-04-09T15:01:09.525Z,10.55
2023-04-09T15:04:15.995Z,10.75
2023-04-09T15:07:23.257Z,10.77
2023-04-09T15:10:31.541Z,10.79
2023-04-09T15:13:37.957Z,10.72
2023-04-09T15:16:45.812Z,10.68
2023-04-09T15:19:53.669Z,10.95
2023-04-09T15:22:59.785Z,10.49
2023-04-09T15:26:06.452Z,10.10
2023-04-09T15:29:13.212Z,10.06
2023-04-09T15:32:20.771Z,10.08
2023-04-09T15:35:29.551Z,9.39
2023-04-09T15:38:36.227Z,9.45
2023-04-09T15:41:43.050Z,9.14
2023-04-09T15:44:49.494Z,9.41
2023-04-09T15:47:57.088Z,8.99
2023-04-09T15:51:04.970Z,9.06
2023-04-09T15:54:11.247Z,8.91
2023-04-09T15:57:18.521Z,8.40
2023-04-09T16:00:25.450Z,8.24
2023-04-09T16:03:39.673Z,8.27
2023-04-09T16:06:45.938Z,8.39
2023-04-09T16:09:52.399Z,8.41
2023-04-09T16:12:58.893Z,7.98
2023-04-09T16:16:07.035Z,8.02
2023-04-09T16:19:14.910Z,8.33
2023-04-09T16:22:21.525Z,8.34
2023-04-09T16:25:28.180Z,8.16
2023-04-09T16:28:34.248Z,8.19
2023-04-09T16:31:42.710Z,8.18
2023-04-09T16:34:52.026Z,8.01
2023-04-09T16:37:58.559Z,8.23
2023-04-09T16:41:04.945Z,8.09
2023-04-09T16:44:11.315Z,8.37
2023-04-09T16:47:17.640Z,8.39
2023-04-09T16:50:25.502Z,8.22
2023-04-09T16:53:32.062Z,7.94
2023-04-09T16:56:38.166Z,8.09
2023-04-09T16:59:45.306Z,8.30
2023-04-09T17:02:51.678Z,8.36
2023-04-09T17:05:59.725Z,8.33
2023-04-09T17:09:06.859Z,7.95
2023-04-09T17:12:13.290Z,7.89
2023-04-09T17:15:19.548Z,8.05
2023-04-09T17:18:25.832Z,8.00
2023-04-09T17:21:34.624Z,8.24
2023-04-09T17:24:40.938Z,8.18
2023-04-09T17:27:47.114Z,8.21
2023-04-09T17:30:53.494Z,8.43
2023-04-09T17:33:59.712Z,8.15
2023-04-09T17:37:07.919Z,8.19
2023-04-09T17:40:15.336Z,7.78
2023-04-09T17:43:22.072Z,7.90
2023-04-09T17:46:29.099Z,7.70
2023-04-09T17:49:35.692Z,7.63
2023-04-09T17:52:43.820Z,7.82
2023-04-09T17:55:51.086Z,7.65
2023-04-09T17:58:58.240Z,7.68
2023-04-09T18:02:05.134Z,7.52
2023-04-09T18:05:12.009Z,7.32
2023-04-09T18:08:20.482Z,7.70
2023-04-09T18:11:27.276Z,7.16
2023-04-09T18:14:33.538Z,7.09
2023-04-09T18:17:40.067Z,6.91
2023-04-09T18:20:55.110Z,6.88
2023-04-09T18:24:11.883Z,7.06
2023-04-09T18:27:18.887Z,6.84
2023-04-09T18:30:26.469Z,7.27
2023-04-09T18:33:33.074Z,7.06
2023-04-09T18:36:41.892Z,6.76
2023-04-09T18:39:50.021Z,6.96
2023-04-09T18:42:56.964Z,6.72
2023-04-09T18:46:03.835Z,6.58
2023-04-09T18:49:11.198Z,6.78
2023-04-09T18:52:17.980Z,6.98
2023-04-09T18:55:25.914Z,7.43
2023-04-09T18:58:33.893Z,6.69
2023-04-09T19:01:40.324Z,6.87
2023-04-09T19:04:47.436Z,7.25
2023-04-09T19:07:59.383Z,6.93
2023-04-09T19:11:08.911Z,6.98
2023-04-09T19:14:15.648Z,7.13
2023-04-09T19:17:22.553Z,7.33
2023-04-09T19:20:29.444Z,7.00
2023-04-09T19:23:36.236Z,7.33
2023-04-09T19:26:44.409Z,7.25
2023-04-09T19:29:50.939Z,7.05
2023-04-09T19:32:57.681Z,7.07
2023-04-09T19:36:04.391Z,6.97
2023-04-09T19:39:11.276Z,7.09
2023-04-09T19:42:19.162Z,6.88
2023-04-09T19:45:25.622Z,6.91
2023-04-09T19:48:32.447Z,7.06
2023-04-09T19:51:38.920Z,6.86
2023-04-09T19:54:44.861Z,7.04
2023-04-09T19:57:52.565Z,6.97
2023-04-09T20:00:58.763Z,6.98
2023-04-09T20:04:05.348Z,7.04
2023-04-09T20:07:12.035Z,6.93
2023-04-09T20:10:21.434Z,6.70
2023-04-09T20:13:30.182Z,7.00
2023-04-09T20:16:36.848Z,6.92
2023-04-09T20:19:43.385Z,6.92
2023-04-09T20:22:56.481Z,6.88
2023-04-09T20:26:03.802Z,7.04
2023-04-09T20:29:12.623Z,7.06
2023-04-09T20:32:18.853Z,6.89
2023-04-09T20:35:25.670Z,7.09
2023-04-09T20:38:32.289Z,7.07
2023-04-09T20:41:38.725Z,6.92
2023-04-09T20:44:46.294Z,7.06
2023-04-09T20:47:53.535Z,7.17
2023-04-09T20:51:00.715Z,6.94
2023-04-09T20:54:07.043Z,7.07
2023-04-09T20:57:14.085Z,7.08
2023-04-09T21:00:21.989Z,7.03
2023-04-09T21:03:28.287Z,6.84
2023-04-09T21:06:35.939Z,6.92
2023-04-09T21:09:42.177Z,6.69
2023-04-09T21:12:48.388Z,6.73
2023-04-09T21:15:56.278Z,6.80
2023-04-09T21:19:07.233Z,6.88
2023-04-09T21:22:13.682Z,6.57
2023-04-09T21:25:19.973Z,6.82
2023-04-09T21:28:26.781Z,6.67
2023-04-09T21:31:35.865Z,6.70
2023-04-09T21:34:42.349Z,6.72
2023-04-09T21:37:48.693Z,6.58
2023-04-09T21:40:55.012Z,6.61
2023-04-09T21:44:08.091Z,6.84
2023-04-09T21:47:15.669Z,6.82
2023-04-09T21:50:22.441Z,6.86
2023-04-09T21:53:28.616Z,6.52
2023-04-09T21:56:35.169Z,6.80
2023-04-09T21:59:42.349Z,6.72
2023-04-09T22:02:49.782Z,6.70
2023-04-09T22:05:55.968Z,6.85
2023-04-09T22:09:02.518Z,6.68
2023-04-09T22:12:08.934Z,6.56
2023-04-09T22:15:15.565Z,6.69
2023-04-09T22:18:23.479Z,6.78
2023-04-09T22:21:29.776Z,6.70
2023-04-09T22:24:36.397Z,6.46
2023-04-09T22:27:43.597Z,6.83
2023-04-09T22:30:50.108Z,6.52
2023-04-09T22:33:58.721Z,6.76
2023-04-09T22:37:06.417Z,6.74
2023-04-09T22:40:14.905Z,6.63
2023-04-09T22:43:21.028Z,6.34
2023-04-09T22:46:27.661Z,6.36
2023-04-09T22:49:35.343Z,6.31
2023-04-09T22:52:41.737Z,6.48
2023-04-09T22:55:50.932Z,6.39
2023-04-09T22:58:57.680Z,6.45
2023-04-09T23:02:04.043Z,6.44
2023-04-09T23:05:12.032Z,6.35
2023-04-09T23:08:18.704Z,6.23
2023-04-09T23:11:25.105Z,6.45
2023-04-09T23:14:31.697Z,6.27
2023-04-09T23:17:38.275Z,6.28
2023-04-09T23:20:46.056Z,6.62
2023-04-09T23:23:52.867Z,6.49
2023-04-09T23:26:59.928Z,6.31
2023-04-09T23:30:07.122Z,6.58
2023-04-09T23:33:13.082Z,6.33
2023-04-09T23:36:20.605Z,6.49
2023-04-09T23:39:27.171Z,6.45
2023-04-09T23:42:34.117Z,6.57
2023-04-09T23:45:40.083Z,6.61
2023-04-09T23:48:46.244Z,6.56
2023-04-09T23:51:54.072Z,6.34
2023-04-09T23:55:00.921Z,6.40
2023-04-09T23:58:07.091Z,6.64
